Share

Oakesdale, WA

Palouse Cove (KWAPALOU5) Elev 2425 ft | 46.91 °N, 117.08 °W | Change Station

Current weather conditions updated 41 seconds ago

Scattered Clouds
Scattered Clouds
46.0 °F
Feels Like 40 °F
N
14.1
Wind Variable Wind from WSW
Gusts 17.0 mph
Sunrise 5:55 AM
Sunset 7:42 PM
Moon Waning Gibbous

Today is forecast to be Warmer than yesterday.

Pressure 29.94 in
Visibility 10.0 miles
Clouds Scattered Clouds 5500 ft
Windchill 40 °F
Dew Point 32 °F
Humidity 59%
Rainfall 0.00 in
Snow Depth Not available.
UV 7 out of 16
Pollen 8.60 out of 12
Air Quality Not available.
Flu Activity Sporadic
SPECI KSKA 182016Z AUTO 24015G24KT 10SM SCT055 10/M02 A2994 RMK AO2

More Conditions Fewer Conditions

Pressure 29.94 in
Visibility 10.0 miles
Clouds Scattered Clouds 5500 ft
Windchill 40 °F
Dew Point 32 °F
Humidity 59%
Rainfall 0.00 in
Snow Depth Not available.
UV 7 out of 16
Pollen 8.60 out of 12
Air Quality Not available.
Flu Activity Sporadic
SPECI KSKA 182016Z AUTO 24015G24KT 10SM SCT055 10/M02 A2994 RMK AO2

More Conditions Fewer Conditions

10-Day Weather Forecast

Almanac

Astronomy

Apr. 18, 2014 Rise Set
Actual Time 5:55 AM PDT 7:42 PM PDT
Civil Twilight 5:22 AM PDT 8:14 PM PDT
Nautical Twilight 4:43 AM PDT 8:54 PM PDT
Astronomical Twilight 4:00 AM PDT 9:37 PM PDT
Moon 11:41 PM PDT 8:12 AM PDT
Length of Visible Light 14h 51m
Length of Day
13h 46m
Tomorrow will be 3m 12s longer.
Waning Gibbous, 86% of the Moon is Illuminated
Today
Waning Gibbous
Apr 22
Last Quarter
Apr 29
New
May 6
First Quarter
May 14
Full

Today's Extremes

State Highs State Lows

Community

  • What's for Lunch?
    What's for Lunch?
  • SUNRISE THROUGH THE TREES.
    SUNRISE THROUGH THE TREES.
  • Dog Wood Blossoms
    Dog Wood Blossoms
  • Morning Light
    Morning Light
  • New Day
    New Day

WunderPhotos

Upload Photos

1,702,492 photos uploaded!

WunderBlogs® & News

Nearby

Snow Depth

Station Depth Elevation
Quartz Peak 32 in 4700 ft
Sourdough Gulch 0 in 4000 ft
Spruce Springs 27 in 5700 ft
Touchet 53 in 5530 ft
Bunchgrass Meadow 77 in 5000 ft

Coastal Water Temperatures

Place Temperature
No Stations Reporting

Earthquake Activity

City Distance Mag. Time & Date
No recent earthquake activity has been reported nearby.
Minimum magnitude displayed is 2.5.

Nearby Weather Stations

Station Location Temp. Windchill Dew Point Humidity Wind Precip. Elev Updated Type
Palouse Cove, Palouse, WA 46.0 °F 40 °F 32 °F 59% WSW  at  14.1 mph 0.00 in / hr 2425 ft 1:25 PM PDT Rapid Fire
Moscow Mtn - 5 mi N (Greenview Ln), Moscow, ID 42.1 °F 38 °F 30 °F 63% WNW  at  6.0 mph 0.00 in / hr 3681 ft 1:24 PM PDT Rapid Fire

Show More Stations Show Fewer Stations

What do you think?

We're not finished. Please let us know what you like, what you don't like, and what you are still missing.